sensor_id;sensor_type;location;lat;lon;timestamp;pressure;altitude;pressure_sealevel;temperature;humidity
63819;BME280;49970;54.976;73.248;2023-05-11T00:01:36;100487.38;;;6.37;98.90
63819;BME280;49970;54.976;73.248;2023-05-11T00:04:02;100484.78;;;6.35;98.25
63819;BME280;49970;54.976;73.248;2023-05-11T00:06:29;100471.63;;;6.35;99.32
63819;BME280;49970;54.976;73.248;2023-05-11T00:08:55;100464.63;;;6.36;98.83
63819;BME280;49970;54.976;73.248;2023-05-11T00:11:21;100470.72;;;6.36;98.92
63819;BME280;49970;54.976;73.248;2023-05-11T00:13:48;100471.72;;;6.34;98.65
63819;BME280;49970;54.976;73.248;2023-05-11T00:16:14;100464.06;;;6.29;98.91
63819;BME280;49970;54.976;73.248;2023-05-11T00:18:41;100461.28;;;6.32;99.49
63819;BME280;49970;54.976;73.248;2023-05-11T00:21:27;100467.56;;;6.30;99.23
63819;BME280;49970;54.976;73.248;2023-05-11T00:25:22;100455.63;;;6.22;98.74
63819;BME280;49970;54.976;73.248;2023-05-11T00:27:49;100458.25;;;6.22;98.36
63819;BME280;49970;54.976;73.248;2023-05-11T00:30:15;100458.25;;;6.22;98.48
63819;BME280;49970;54.976;73.248;2023-05-11T00:32:42;100444.25;;;6.22;99.32
63819;BME280;49970;54.976;73.248;2023-05-11T00:35:10;100449.53;;;6.22;98.47
63819;BME280;49970;54.976;73.248;2023-05-11T00:37:38;100443.34;;;6.23;99.09
63819;BME280;49970;54.976;73.248;2023-05-11T00:40:04;100441.63;;;6.22;98.68
63819;BME280;49970;54.976;73.248;2023-05-11T00:42:31;100426.56;;;6.26;98.95
63819;BME280;49970;54.976;73.248;2023-05-11T00:44:58;100425.22;;;6.34;99.12
63819;BME280;49970;54.976;73.248;2023-05-11T00:47:25;100424.22;;;6.37;98.92
63819;BME280;49970;54.976;73.248;2023-05-11T00:49:52;100404.28;;;6.33;98.49
63819;BME280;49970;54.976;73.248;2023-05-11T00:52:20;100409.13;;;6.40;98.00
63819;BME280;49970;54.976;73.248;2023-05-11T00:54:47;100406.41;;;6.42;98.47
63819;BME280;49970;54.976;73.248;2023-05-11T00:57:15;100409.75;;;6.45;97.81
63819;BME280;49970;54.976;73.248;2023-05-11T00:59:41;100416.63;;;6.48;98.03
63819;BME280;49970;54.976;73.248;2023-05-11T01:02:08;100415.00;;;6.45;97.94
63819;BME280;49970;54.976;73.248;2023-05-11T01:04:34;100415.25;;;6.41;97.40
63819;BME280;49970;54.976;73.248;2023-05-11T01:15:45;100396.72;;;6.42;96.89
63819;BME280;49970;54.976;73.248;2023-05-11T01:18:22;100391.63;;;6.39;96.27
63819;BME280;49970;54.976;73.248;2023-05-11T01:20:55;100408.19;;;6.41;96.36
63819;BME280;49970;54.976;73.248;2023-05-11T01:26:09;100415.09;;;6.44;96.45
63819;BME280;49970;54.976;73.248;2023-05-11T01:31:09;100398.38;;;6.45;96.02
63819;BME280;49970;54.976;73.248;2023-05-11T01:33:39;100398.13;;;6.49;96.25
63819;BME280;49970;54.976;73.248;2023-05-11T01:36:10;100388.34;;;6.52;96.40
63819;BME280;49970;54.976;73.248;2023-05-11T01:38:39;100398.81;;;6.53;95.18
63819;BME280;49970;54.976;73.248;2023-05-11T01:41:15;100391.06;;;6.50;95.66
63819;BME280;49970;54.976;73.248;2023-05-11T01:43:54;100376.38;;;6.46;95.25
63819;BME280;49970;54.976;73.248;2023-05-11T01:46:25;100361.53;;;6.45;95.53
63819;BME280;49970;54.976;73.248;2023-05-11T01:48:56;100366.78;;;6.45;95.26
63819;BME280;49970;54.976;73.248;2023-05-11T01:51:31;100344.06;;;6.44;95.19
63819;BME280;49970;54.976;73.248;2023-05-11T01:53:59;100352.28;;;6.54;95.42
63819;BME280;49970;54.976;73.248;2023-05-11T01:56:27;100353.69;;;6.61;95.18
63819;BME280;49970;54.976;73.248;2023-05-11T01:58:55;100351.47;;;6.69;96.08
63819;BME280;49970;54.976;73.248;2023-05-11T02:01:23;100351.22;;;6.73;95.65
63819;BME280;49970;54.976;73.248;2023-05-11T02:03:50;100348.50;;;6.75;95.11
63819;BME280;49970;54.976;73.248;2023-05-11T02:06:18;100349.25;;;6.77;94.60
63819;BME280;49970;54.976;73.248;2023-05-11T02:08:47;100354.44;;;6.79;94.02
63819;BME280;49970;54.976;73.248;2023-05-11T02:11:14;100368.38;;;6.81;94.32
63819;BME280;49970;54.976;73.248;2023-05-11T02:13:43;100364.88;;;6.80;93.90
63819;BME280;49970;54.976;73.248;2023-05-11T02:16:10;100364.03;;;6.80;93.91
63819;BME280;49970;54.976;73.248;2023-05-11T02:18:39;100355.28;;;6.79;93.57
63819;BME280;49970;54.976;73.248;2023-05-11T02:21:08;100359.63;;;6.80;93.85
63819;BME280;49970;54.976;73.248;2023-05-11T02:23:36;100360.91;;;6.73;94.06
63819;BME280;49970;54.976;73.248;2023-05-11T02:26:03;100366.66;;;6.80;93.72
63819;BME280;49970;54.976;73.248;2023-05-11T02:28:30;100364.97;;;6.79;93.52
63819;BME280;49970;54.976;73.248;2023-05-11T02:31:00;100361.50;;;6.78;93.74
63819;BME280;49970;54.976;73.248;2023-05-11T02:33:30;100363.09;;;6.81;93.41
63819;BME280;49970;54.976;73.248;2023-05-11T02:35:58;100377.97;;;6.82;92.81
63819;BME280;49970;54.976;73.248;2023-05-11T02:38:32;100362.19;;;6.82;92.98
63819;BME280;49970;54.976;73.248;2023-05-11T02:41:03;100364.13;;;6.78;93.11
63819;BME280;49970;54.976;73.248;2023-05-11T02:43:35;100371.09;;;6.79;92.51
63819;BME280;49970;54.976;73.248;2023-05-11T02:46:10;100368.47;;;6.79;92.72
63819;BME280;49970;54.976;73.248;2023-05-11T02:48:40;100371.19;;;6.78;93.03
63819;BME280;49970;54.976;73.248;2023-05-11T02:51:10;100371.19;;;6.78;93.24
63819;BME280;49970;54.976;73.248;2023-05-11T02:53:44;100379.09;;;6.78;92.93
63819;BME280;49970;54.976;73.248;2023-05-11T02:56:12;100364.19;;;6.77;92.38
63819;BME280;49970;54.976;73.248;2023-05-11T02:58:38;100366.75;;;6.78;92.72
63819;BME280;49970;54.976;73.248;2023-05-11T03:01:23;100373.63;;;6.81;92.75
63819;BME280;49970;54.976;73.248;2023-05-11T03:03:51;100380.69;;;6.80;92.65
63819;BME280;49970;54.976;73.248;2023-05-11T03:06:17;100374.56;;;6.80;92.42
63819;BME280;49970;54.976;73.248;2023-05-11T03:08:44;100379.75;;;6.81;91.92
63819;BME280;49970;54.976;73.248;2023-05-11T03:11:12;100383.91;;;6.85;92.44
63819;BME280;49970;54.976;73.248;2023-05-11T03:14:03;100386.38;;;6.88;92.17
63819;BME280;49970;54.976;73.248;2023-05-11T03:17:54;100377.38;;;6.92;92.24
63819;BME280;49970;54.976;73.248;2023-05-11T03:25:34;100382.13;;;7.02;91.17
63819;BME280;49970;54.976;73.248;2023-05-11T03:29:25;100386.22;;;7.07;90.87
63819;BME280;49970;54.976;73.248;2023-05-11T03:32:42;100393.88;;;7.12;90.82
63819;BME280;49970;54.976;73.248;2023-05-11T03:35:08;100393.53;;;7.18;90.75
63819;BME280;49970;54.976;73.248;2023-05-11T03:37:36;100377.81;;;7.16;90.54
63819;BME280;49970;54.976;73.248;2023-05-11T03:40:06;100396.06;;;7.35;90.40
63819;BME280;49970;54.976;73.248;2023-05-11T03:42:44;100379.13;;;7.39;90.82
63819;BME280;49970;54.976;73.248;2023-05-11T03:45:31;100398.25;;;7.43;90.19
63819;BME280;49970;54.976;73.248;2023-05-11T03:49:22;100399.09;;;7.43;89.83
63819;BME280;49970;54.976;73.248;2023-05-11T03:53:13;100391.81;;;7.48;89.80
63819;BME280;49970;54.976;73.248;2023-05-11T03:56:44;100376.59;;;7.54;89.46
63819;BME280;49970;54.976;73.248;2023-05-11T03:59:17;100367.56;;;7.58;89.71
63819;BME280;49970;54.976;73.248;2023-05-11T04:01:43;100373.13;;;7.67;89.21
63819;BME280;49970;54.976;73.248;2023-05-11T04:04:10;100375.78;;;7.67;88.94
63819;BME280;49970;54.976;73.248;2023-05-11T04:06:36;100383.41;;;7.72;89.20
63819;BME280;49970;54.976;73.248;2023-05-11T04:09:30;100386.38;;;7.82;89.12
63819;BME280;49970;54.976;73.248;2023-05-11T04:13:46;100389.31;;;7.91;88.46
63819;BME280;49970;54.976;73.248;2023-05-11T04:21:28;100405.00;;;8.09;87.96
63819;BME280;49970;54.976;73.248;2023-05-11T04:23:57;100411.63;;;8.16;87.47
63819;BME280;49970;54.976;73.248;2023-05-11T04:26:28;100419.44;;;8.17;86.65
63819;BME280;49970;54.976;73.248;2023-05-11T04:28:59;100415.50;;;8.24;87.17
63819;BME280;49970;54.976;73.248;2023-05-11T04:31:30;100423.56;;;8.37;86.61
63819;BME280;49970;54.976;73.248;2023-05-11T04:34:01;100416.88;;;8.46;86.13
63819;BME280;49970;54.976;73.248;2023-05-11T04:36:31;100420.75;;;8.55;86.88
63819;BME280;49970;54.976;73.248;2023-05-11T04:39:00;100425.47;;;8.64;86.15
63819;BME280;49970;54.976;73.248;2023-05-11T04:41:32;100421.69;;;8.68;85.16
63819;BME280;49970;54.976;73.248;2023-05-11T04:44:03;100411.50;;;8.76;84.92
63819;BME280;49970;54.976;73.248;2023-05-11T04:46:34;100411.88;;;8.84;84.68
63819;BME280;49970;54.976;73.248;2023-05-11T04:49:06;100403.19;;;8.96;84.86
63819;BME280;49970;54.976;73.248;2023-05-11T04:51:38;100408.06;;;9.03;84.48
63819;BME280;49970;54.976;73.248;2023-05-11T04:54:13;100404.28;;;9.07;83.82
63819;BME280;49970;54.976;73.248;2023-05-11T04:56:43;100404.03;;;9.11;84.22
63819;BME280;49970;54.976;73.248;2023-05-11T04:59:15;100400.56;;;9.23;84.11
63819;BME280;49970;54.976;73.248;2023-05-11T05:01:46;100416.50;;;9.36;83.52
63819;BME280;49970;54.976;73.248;2023-05-11T05:04:18;100408.72;;;9.47;83.43
63819;BME280;49970;54.976;73.248;2023-05-11T05:06:49;100402.09;;;9.55;83.01
63819;BME280;49970;54.976;73.248;2023-05-11T05:09:19;100402.63;;;9.60;81.72
63819;BME280;49970;54.976;73.248;2023-05-11T05:11:48;100408.56;;;9.63;80.99
63819;BME280;49970;54.976;73.248;2023-05-11T05:14:20;100411.44;;;9.73;80.20
63819;BME280;49970;54.976;73.248;2023-05-11T05:16:52;100402.72;;;9.85;80.73
63819;BME280;49970;54.976;73.248;2023-05-11T05:19:22;100406.84;;;9.89;80.26
63819;BME280;49970;54.976;73.248;2023-05-11T05:21:51;100418.19;;;9.91;80.74
63819;BME280;49970;54.976;73.248;2023-05-11T05:24:21;100412.28;;;10.01;80.41
63819;BME280;49970;54.976;73.248;2023-05-11T05:26:51;100413.97;;;10.14;80.82
63819;BME280;49970;54.976;73.248;2023-05-11T05:29:20;100415.72;;;10.28;79.42
63819;BME280;49970;54.976;73.248;2023-05-11T05:31:49;100425.28;;;10.43;78.66
63819;BME280;49970;54.976;73.248;2023-05-11T05:34:19;100414.69;;;10.56;78.20
63819;BME280;49970;54.976;73.248;2023-05-11T05:36:50;100418.28;;;10.68;78.06
63819;BME280;49970;54.976;73.248;2023-05-11T05:39:39;100412.00;;;10.82;77.16
63819;BME280;49970;54.976;73.248;2023-05-11T05:47:23;100421.00;;;11.05;74.42
63819;BME280;49970;54.976;73.248;2023-05-11T05:51:39;100415.31;;;11.22;74.80
63819;BME280;49970;54.976;73.248;2023-05-11T05:55:31;100413.13;;;11.40;72.47
63819;BME280;49970;54.976;73.248;2023-05-11T06:00:06;100417.13;;;11.58;73.71
63819;BME280;49970;54.976;73.248;2023-05-11T06:03:58;100423.69;;;11.77;72.95
63819;BME280;49970;54.976;73.248;2023-05-11T06:07:49;100404.69;;;11.83;72.90
63819;BME280;49970;54.976;73.248;2023-05-11T06:11:46;100418.13;;;11.92;71.39
63819;BME280;49970;54.976;73.248;2023-05-11T06:16:01;100411.84;;;11.93;70.54
63819;BME280;49970;54.976;73.248;2023-05-11T06:23:44;100421.88;;;11.77;68.41
63819;BME280;49970;54.976;73.248;2023-05-11T06:27:35;100422.50;;;11.81;68.22
63819;BME280;49970;54.976;73.248;2023-05-11T06:39:08;100409.25;;;12.05;68.51
63819;BME280;49970;54.976;73.248;2023-05-11T06:42:18;100410.34;;;12.13;68.36
63819;BME280;49970;54.976;73.248;2023-05-11T06:44:46;100407.47;;;12.16;68.32
63819;BME280;49970;54.976;73.248;2023-05-11T06:47:33;100390.31;;;12.09;65.33
63819;BME280;49970;54.976;73.248;2023-05-11T06:50:42;100403.97;;;12.27;64.50
63819;BME280;49970;54.976;73.248;2023-05-11T06:54:14;100407.13;;;12.21;63.14
63819;BME280;49970;54.976;73.248;2023-05-11T06:56:41;100405.41;;;12.20;62.87
63819;BME280;49970;54.976;73.248;2023-05-11T06:59:07;100403.50;;;12.22;62.63
63819;BME280;49970;54.976;73.248;2023-05-11T07:01:53;100410.88;;;12.30;62.33
63819;BME280;49970;54.976;73.248;2023-05-11T07:05:44;100398.44;;;12.41;62.67
63819;BME280;49970;54.976;73.248;2023-05-11T07:08:23;100393.28;;;12.51;62.86
63819;BME280;49970;54.976;73.248;2023-05-11T07:10:49;100390.03;;;12.59;61.72
63819;BME280;49970;54.976;73.248;2023-05-11T07:13:15;100399.47;;;12.63;61.20
63819;BME280;49970;54.976;73.248;2023-05-11T07:15:41;100410.91;;;12.75;61.10
63819;BME280;49970;54.976;73.248;2023-05-11T07:18:08;100406.06;;;12.91;60.48
63819;BME280;49970;54.976;73.248;2023-05-11T07:20:35;100412.97;;;12.93;60.53
63819;BME280;49970;54.976;73.248;2023-05-11T07:23:02;100409.81;;;13.00;60.26
63819;BME280;49970;54.976;73.248;2023-05-11T07:25:29;100403.88;;;13.07;59.49
63819;BME280;49970;54.976;73.248;2023-05-11T07:28:15;100396.03;;;13.17;59.51
63819;BME280;49970;54.976;73.248;2023-05-11T07:32:06;100381.63;;;13.19;59.26
63819;BME280;49970;54.976;73.248;2023-05-11T07:35:17;100386.13;;;13.30;60.07
63819;BME280;49970;54.976;73.248;2023-05-11T07:37:44;100379.81;;;13.42;59.96
63819;BME280;49970;54.976;73.248;2023-05-11T07:40:10;100382.09;;;13.47;59.63
63819;BME280;49970;54.976;73.248;2023-05-11T07:42:37;100396.72;;;13.41;58.91
63819;BME280;49970;54.976;73.248;2023-05-11T07:45:03;100397.84;;;13.28;59.38
63819;BME280;49970;54.976;73.248;2023-05-11T07:47:29;100391.94;;;13.24;58.62
63819;BME280;49970;54.976;73.248;2023-05-11T07:49:56;100395.31;;;13.26;59.29
63819;BME280;49970;54.976;73.248;2023-05-11T07:52:22;100383.72;;;13.27;59.81
63819;BME280;49970;54.976;73.248;2023-05-11T07:54:48;100389.38;;;13.34;58.82
63819;BME280;49970;54.976;73.248;2023-05-11T07:57:14;100387.50;;;13.45;58.96
63819;BME280;49970;54.976;73.248;2023-05-11T07:59:40;100382.41;;;13.54;57.05
63819;BME280;49970;54.976;73.248;2023-05-11T08:02:27;100387.63;;;13.55;57.06
63819;BME280;49970;54.976;73.248;2023-05-11T08:06:13;100376.00;;;13.56;56.91
63819;BME280;49970;54.976;73.248;2023-05-11T08:08:40;100379.13;;;13.61;57.29
63819;BME280;49970;54.976;73.248;2023-05-11T08:11:06;100378.34;;;13.70;57.67
63819;BME280;49970;54.976;73.248;2023-05-11T08:13:32;100378.94;;;13.74;56.93
63819;BME280;49970;54.976;73.248;2023-05-11T08:15:59;100365.78;;;13.73;56.87
63819;BME280;49970;54.976;73.248;2023-05-11T08:18:26;100362.38;;;13.70;56.52
63819;BME280;49970;54.976;73.248;2023-05-11T08:21:13;100368.06;;;13.77;57.21
63819;BME280;49970;54.976;73.248;2023-05-11T08:24:25;100378.94;;;13.74;56.13
63819;BME280;49970;54.976;73.248;2023-05-11T08:26:51;100375.97;;;13.67;55.91
63819;BME280;49970;54.976;73.248;2023-05-11T08:29:17;100373.63;;;13.74;56.38
63819;BME280;49970;54.976;73.248;2023-05-11T08:31:43;100371.41;;;13.79;55.39
63819;BME280;49970;54.976;73.248;2023-05-11T08:34:10;100379.75;;;13.86;55.51
63819;BME280;49970;54.976;73.248;2023-05-11T08:36:52;100373.19;;;13.90;55.13
63819;BME280;49970;54.976;73.248;2023-05-11T08:39:20;100367.63;;;13.93;55.62
63819;BME280;49970;54.976;73.248;2023-05-11T08:41:48;100363.28;;;13.92;55.67
63819;BME280;49970;54.976;73.248;2023-05-11T08:44:16;100369.31;;;13.94;56.56
63819;BME280;49970;54.976;73.248;2023-05-11T08:46:44;100370.78;;;13.87;55.36
63819;BME280;49970;54.976;73.248;2023-05-11T08:49:13;100388.97;;;13.82;56.19
63819;BME280;49970;54.976;73.248;2023-05-11T08:51:40;100390.06;;;13.79;55.82
63819;BME280;49970;54.976;73.248;2023-05-11T08:54:06;100383.63;;;13.82;55.49
63819;BME280;49970;54.976;73.248;2023-05-11T08:56:33;100373.59;;;13.85;55.75
63819;BME280;49970;54.976;73.248;2023-05-11T08:59:03;100377.16;;;13.95;55.40
63819;BME280;49970;54.976;73.248;2023-05-11T09:01:34;100383.91;;;14.00;55.05
63819;BME280;49970;54.976;73.248;2023-05-11T09:04:14;100372.56;;;13.98;55.13
63819;BME280;49970;54.976;73.248;2023-05-11T09:06:41;100381.53;;;13.97;55.23
63819;BME280;49970;54.976;73.248;2023-05-11T09:09:07;100374.63;;;13.94;55.14
63819;BME280;49970;54.976;73.248;2023-05-11T09:11:34;100385.88;;;13.98;54.89
63819;BME280;49970;54.976;73.248;2023-05-11T09:14:00;100371.81;;;13.95;54.94
63819;BME280;49970;54.976;73.248;2023-05-11T09:16:27;100382.69;;;14.04;55.71
63819;BME280;49970;54.976;73.248;2023-05-11T09:18:54;100381.34;;;14.09;55.51
63819;BME280;49970;54.976;73.248;2023-05-11T09:21:23;100380.16;;;14.23;56.34
63819;BME280;49970;54.976;73.248;2023-05-11T09:23:50;100387.41;;;14.42;55.28
63819;BME280;49970;54.976;73.248;2023-05-11T09:26:20;100378.13;;;14.57;55.66
63819;BME280;49970;54.976;73.248;2023-05-11T09:28:59;100377.88;;;14.70;55.00
63819;BME280;49970;54.976;73.248;2023-05-11T09:31:45;100373.56;;;14.79;54.75
63819;BME280;49970;54.976;73.248;2023-05-11T09:34:20;100380.75;;;14.88;53.10
63819;BME280;49970;54.976;73.248;2023-05-11T09:37:07;100373.16;;;14.83;53.73
63819;BME280;49970;54.976;73.248;2023-05-11T09:40:18;100371.63;;;14.81;53.31
63819;BME280;49970;54.976;73.248;2023-05-11T09:42:48;100373.31;;;14.82;53.67
63819;BME280;49970;54.976;73.248;2023-05-11T09:45:42;100373.16;;;14.83;52.43
63819;BME280;49970;54.976;73.248;2023-05-11T09:50:44;100367.94;;;14.72;52.53
63819;BME280;49970;54.976;73.248;2023-05-11T09:53:11;100379.13;;;14.66;51.62
63819;BME280;49970;54.976;73.248;2023-05-11T09:55:37;100370.84;;;14.59;52.84
63819;BME280;49970;54.976;73.248;2023-05-11T09:58:03;100366.47;;;14.58;52.32
63819;BME280;49970;54.976;73.248;2023-05-11T10:00:30;100364.53;;;14.60;52.82
63819;BME280;49970;54.976;73.248;2023-05-11T10:03:05;100363.03;;;14.67;52.62
63819;BME280;49970;54.976;73.248;2023-05-11T10:05:33;100365.28;;;14.72;52.38
63819;BME280;49970;54.976;73.248;2023-05-11T10:08:01;100363.31;;;14.74;51.50
63819;BME280;49970;54.976;73.248;2023-05-11T10:10:49;100357.97;;;14.74;52.32
63819;BME280;49970;54.976;73.248;2023-05-11T10:14:39;100365.97;;;14.74;50.65
63819;BME280;49970;54.976;73.248;2023-05-11T10:22:19;100355.19;;;14.76;50.75
63819;BME280;49970;54.976;73.248;2023-05-11T10:26:15;100347.91;;;14.78;50.95
63819;BME280;49970;54.976;73.248;2023-05-11T10:28:42;100355.50;;;14.82;50.79
63819;BME280;49970;54.976;73.248;2023-05-11T10:31:09;100355.50;;;14.82;51.02
63819;BME280;49970;54.976;73.248;2023-05-11T10:33:36;100351.84;;;14.83;50.36
63819;BME280;49970;54.976;73.248;2023-05-11T10:36:03;100360.69;;;14.84;50.56
63819;BME280;49970;54.976;73.248;2023-05-11T10:38:29;100359.44;;;14.88;48.74
63819;BME280;49970;54.976;73.248;2023-05-11T10:41:04;100353.56;;;14.94;47.23
63819;BME280;49970;54.976;73.248;2023-05-11T10:46:53;100350.50;;;14.99;47.06
63819;BME280;49970;54.976;73.248;2023-05-11T10:55:26;100361.75;;;15.12;46.49
63819;BME280;49970;54.976;73.248;2023-05-11T10:58:01;100362.06;;;15.18;45.50
63819;BME280;49970;54.976;73.248;2023-05-11T11:03:16;100351.22;;;15.20;45.58
63819;BME280;49970;54.976;73.248;2023-05-11T11:05:43;100354.88;;;15.19;45.60
63819;BME280;49970;54.976;73.248;2023-05-11T11:08:11;100355.31;;;15.24;44.86
63819;BME280;49970;54.976;73.248;2023-05-11T11:10:40;100356.72;;;15.28;45.30
63819;BME280;49970;54.976;73.248;2023-05-11T11:13:09;100360.97;;;15.31;45.68
63819;BME280;49970;54.976;73.248;2023-05-11T11:18:29;100362.94;;;15.38;44.27
63819;BME280;49970;54.976;73.248;2023-05-11T11:20:59;100366.56;;;15.37;43.78
63819;BME280;49970;54.976;73.248;2023-05-11T11:23:45;100359.69;;;15.35;43.42
63819;BME280;49970;54.976;73.248;2023-05-11T11:26:15;100365.31;;;15.32;44.25
63819;BME280;49970;54.976;73.248;2023-05-11T11:31:22;100360.81;;;15.32;43.50
63819;BME280;49970;54.976;73.248;2023-05-11T11:33:54;100361.78;;;15.31;43.51
63819;BME280;49970;54.976;73.248;2023-05-11T11:39:21;100365.16;;;15.33;43.38
63819;BME280;49970;54.976;73.248;2023-05-11T11:42:13;100360.38;;;15.37;41.36
63819;BME280;49970;54.976;73.248;2023-05-11T11:44:42;100369.22;;;15.37;40.90
63819;BME280;49970;54.976;73.248;2023-05-11T11:47:15;100355.88;;;15.37;41.07
63819;BME280;49970;54.976;73.248;2023-05-11T11:52:34;100349.72;;;15.37;41.31
63819;BME280;49970;54.976;73.248;2023-05-11T11:55:02;100347.19;;;15.35;41.77
63819;BME280;49970;54.976;73.248;2023-05-11T12:02:42;100355.34;;;15.43;41.97
63819;BME280;49970;54.976;73.248;2023-05-11T12:07:47;100358.44;;;15.49;42.85
63819;BME280;49970;54.976;73.248;2023-05-11T12:10:15;100368.28;;;15.48;42.76
63819;BME280;49970;54.976;73.248;2023-05-11T12:12:46;100365.59;;;15.48;42.09
63819;BME280;49970;54.976;73.248;2023-05-11T12:15:30;100357.31;;;15.41;41.90
63819;BME280;49970;54.976;73.248;2023-05-11T12:18:01;100360.69;;;15.43;41.98
63819;BME280;49970;54.976;73.248;2023-05-11T12:20:28;100358.84;;;15.44;42.17
63819;BME280;49970;54.976;73.248;2023-05-11T12:22:54;100357.44;;;15.40;43.03
63819;BME280;49970;54.976;73.248;2023-05-11T12:25:21;100358.44;;;15.49;42.65
63819;BME280;49970;54.976;73.248;2023-05-11T12:27:54;100368.00;;;15.51;43.24
63819;BME280;49970;54.976;73.248;2023-05-11T12:30:27;100362.78;;;15.50;42.53
63819;BME280;49970;54.976;73.248;2023-05-11T12:32:54;100362.09;;;15.48;43.27
63819;BME280;49970;54.976;73.248;2023-05-11T12:35:25;100369.38;;;15.45;43.87
63819;BME280;49970;54.976;73.248;2023-05-11T12:37:52;100368.69;;;15.43;43.19
63819;BME280;49970;54.976;73.248;2023-05-11T12:40:18;100366.44;;;15.39;43.44
63819;BME280;49970;54.976;73.248;2023-05-11T12:42:54;100361.69;;;15.42;43.20
63819;BME280;49970;54.976;73.248;2023-05-11T12:45:21;100372.19;;;15.44;43.32
63819;BME280;49970;54.976;73.248;2023-05-11T12:47:49;100370.38;;;15.44;43.51
63819;BME280;49970;54.976;73.248;2023-05-11T12:50:16;100363.47;;;15.42;43.61
63819;BME280;49970;54.976;73.248;2023-05-11T12:52:44;100363.78;;;15.39;44.13
63819;BME280;49970;54.976;73.248;2023-05-11T12:55:10;100369.22;;;15.37;43.37
63819;BME280;49970;54.976;73.248;2023-05-11T12:57:38;100365.88;;;15.35;43.16
63819;BME280;49970;54.976;73.248;2023-05-11T13:00:12;100370.50;;;15.33;42.81
63819;BME280;49970;54.976;73.248;2023-05-11T13:02:49;100367.97;;;15.32;43.57
63819;BME280;49970;54.976;73.248;2023-05-11T13:05:16;100369.06;;;15.29;43.98
63819;BME280;49970;54.976;73.248;2023-05-11T13:07:44;100372.03;;;15.26;44.07
63819;BME280;49970;54.976;73.248;2023-05-11T13:10:12;100366.81;;;15.25;43.48
63819;BME280;49970;54.976;73.248;2023-05-11T13:12:49;100372.31;;;15.23;43.51
63819;BME280;49970;54.976;73.248;2023-05-11T13:15:17;100367.13;;;15.22;42.98
63819;BME280;49970;54.976;73.248;2023-05-11T13:17:45;100353.47;;;15.15;43.15
63819;BME280;49970;54.976;73.248;2023-05-11T13:20:29;100374.41;;;15.19;43.01
63819;BME280;49970;54.976;73.248;2023-05-11T13:25:28;100381.00;;;15.15;43.57
63819;BME280;49970;54.976;73.248;2023-05-11T13:27:54;100379.44;;;15.13;43.81
63819;BME280;49970;54.976;73.248;2023-05-11T13:30:23;100374.41;;;15.10;43.98
63819;BME280;49970;54.976;73.248;2023-05-11T13:32:49;100374.50;;;15.08;44.23
63819;BME280;49970;54.976;73.248;2023-05-11T13:35:15;100378.31;;;15.06;44.46
63819;BME280;49970;54.976;73.248;2023-05-11T13:37:42;100375.91;;;15.03;43.94
63819;BME280;49970;54.976;73.248;2023-05-11T13:40:08;100376.91;;;15.02;43.08
63819;BME280;49970;54.976;73.248;2023-05-11T13:42:35;100378.72;;;15.01;43.06
63819;BME280;49970;54.976;73.248;2023-05-11T13:45:02;100377.31;;;14.97;43.48
63819;BME280;49970;54.976;73.248;2023-05-11T13:47:29;100378.41;;;14.94;43.84
63819;BME280;49970;54.976;73.248;2023-05-11T13:49:56;100378.69;;;14.91;44.75
63819;BME280;49970;54.976;73.248;2023-05-11T13:52:23;100383.44;;;14.88;44.66
63819;BME280;49970;54.976;73.248;2023-05-11T13:54:50;100383.00;;;14.83;45.02
63819;BME280;49970;54.976;73.248;2023-05-11T13:57:16;100384.97;;;14.81;44.36
63819;BME280;49970;54.976;73.248;2023-05-11T14:00:01;100384.53;;;14.76;45.10
63819;BME280;49970;54.976;73.248;2023-05-11T14:02:37;100381.97;;;14.74;44.89
63819;BME280;49970;54.976;73.248;2023-05-11T14:05:04;100384.91;;;14.71;45.23
63819;BME280;49970;54.976;73.248;2023-05-11T14:07:30;100376.47;;;14.66;46.00
63819;BME280;49970;54.976;73.248;2023-05-11T14:09:56;100376.72;;;14.63;45.76
63819;BME280;49970;54.976;73.248;2023-05-11T14:12:22;100380.53;;;14.60;46.11
63819;BME280;49970;54.976;73.248;2023-05-11T14:14:49;100383.44;;;14.57;46.35
63819;BME280;49970;54.976;73.248;2023-05-11T14:17:15;100383.59;;;14.56;46.59
63819;BME280;49970;54.976;73.248;2023-05-11T14:19:42;100389.03;;;14.54;47.23
63819;BME280;49970;54.976;73.248;2023-05-11T14:22:08;100396.34;;;14.52;46.56
63819;BME280;49970;54.976;73.248;2023-05-11T14:24:35;100395.59;;;14.50;47.38
63819;BME280;49970;54.976;73.248;2023-05-11T14:27:02;100403.84;;;14.47;47.64
63819;BME280;49970;54.976;73.248;2023-05-11T14:29:28;100408.59;;;14.43;48.50
63819;BME280;49970;54.976;73.248;2023-05-11T14:31:55;100401.00;;;14.39;47.29
63819;BME280;49970;54.976;73.248;2023-05-11T14:34:21;100410.25;;;14.35;47.91
63819;BME280;49970;54.976;73.248;2023-05-11T14:36:47;100406.16;;;14.31;47.25
63819;BME280;49970;54.976;73.248;2023-05-11T14:39:13;100414.38;;;14.28;47.38
63819;BME280;49970;54.976;73.248;2023-05-11T14:41:39;100415.63;;;14.24;47.12
63819;BME280;49970;54.976;73.248;2023-05-11T14:44:05;100412.63;;;14.17;48.36
63819;BME280;49970;54.976;73.248;2023-05-11T14:46:33;100410.34;;;14.12;47.80
63819;BME280;49970;54.976;73.248;2023-05-11T14:49:01;100425.78;;;14.09;51.97
63819;BME280;49970;54.976;73.248;2023-05-11T14:51:27;100416.97;;;13.97;52.22
63819;BME280;49970;54.976;73.248;2023-05-11T14:53:53;100420.41;;;13.88;51.10
63819;BME280;49970;54.976;73.248;2023-05-11T14:56:19;100421.91;;;13.81;50.71